createdAt,value
2022-08-05T00:00:06.786Z,74.50
2022-08-05T00:02:53.504Z,74.60
2022-08-05T00:06:06.585Z,74.50
2022-08-05T00:08:48.361Z,74.50
2022-08-05T00:11:49.457Z,74.60
2022-08-05T00:14:42.355Z,74.60
2022-08-05T00:17:28.691Z,74.50
2022-08-05T00:20:15.534Z,74.60
2022-08-05T00:23:13.377Z,74.70
2022-08-05T00:26:00.102Z,74.80
2022-08-05T00:28:49.390Z,74.80
2022-08-05T00:31:54.085Z,75.00
2022-08-05T00:35:05.391Z,75.00
2022-08-05T00:37:54.785Z,75.00
2022-08-05T00:40:56.415Z,75.30
2022-08-05T00:43:49.688Z,75.40
2022-08-05T00:46:36.865Z,75.50
2022-08-05T00:49:32.626Z,75.50
2022-08-05T00:52:31.180Z,75.60
2022-08-05T00:55:17.337Z,75.60
2022-08-05T00:58:08.235Z,75.70
2022-08-05T01:01:01.564Z,75.80
2022-08-05T01:03:54.159Z,75.90
2022-08-05T01:06:46.578Z,76.00
2022-08-05T01:09:35.129Z,76.10
2022-08-05T01:12:30.229Z,76.00
2022-08-05T01:15:35.691Z,76.10
2022-08-05T01:18:27.483Z,76.30
2022-08-05T01:21:51.507Z,76.10
2022-08-05T01:24:47.674Z,76.20
2022-08-05T01:28:05.920Z,76.10
2022-08-05T01:31:09.145Z,76.00
2022-08-05T01:34:05.835Z,76.00
2022-08-05T01:37:04.765Z,75.90
2022-08-05T01:39:59.432Z,76.00
2022-08-05T01:42:48.819Z,76.00
2022-08-05T01:45:43.068Z,76.00
2022-08-05T01:48:33.201Z,76.10
2022-08-05T01:51:21.868Z,76.30
2022-08-05T01:54:10.844Z,76.30
2022-08-05T01:58:11.161Z,76.40
2022-08-05T02:00:12.119Z,76.50
2022-08-05T02:03:24.519Z,76.60
2022-08-05T02:06:33.922Z,76.80
2022-08-05T02:09:23.432Z,76.80
2022-08-05T02:12:27.614Z,77.00
2022-08-05T02:15:22.120Z,77.20
2022-08-05T02:18:32.282Z,77.20
2022-08-05T02:21:20.264Z,77.30
2022-08-05T02:24:11.037Z,77.80
2022-08-05T02:27:01.331Z,77.50
2022-08-05T02:30:00.872Z,77.70
2022-08-05T02:32:51.403Z,77.90
2022-08-05T02:35:44.901Z,78.20
2022-08-05T02:38:53.601Z,78.40
2022-08-05T02:41:58.076Z,78.60
2022-08-05T02:44:48.537Z,78.90
2022-08-05T02:48:07.304Z,79.10
2022-08-05T02:50:50.428Z,79.30
2022-08-05T02:53:40.411Z,79.50
2022-08-05T02:56:27.533Z,79.60
2022-08-05T02:59:20.603Z,79.70
2022-08-05T03:02:15.470Z,79.70
2022-08-05T03:05:04.350Z,79.80
2022-08-05T03:08:06.682Z,80.00
2022-08-05T03:11:53.642Z,80.10
2022-08-05T03:14:02.802Z,80.20
2022-08-05T03:16:49.628Z,80.20
2022-08-05T03:19:39.505Z,80.40
2022-08-05T03:22:32.319Z,80.50
2022-08-05T03:26:03.638Z,80.70
2022-08-05T03:28:28.033Z,80.70
2022-08-05T03:31:25.888Z,80.60
2022-08-05T03:34:20.932Z,80.70
2022-08-05T03:37:10.477Z,80.70
2022-08-05T03:39:59.176Z,80.60
2022-08-05T03:42:52.129Z,80.60
2022-08-05T03:45:58.037Z,80.70
2022-08-05T03:48:45.494Z,80.80
2022-08-05T03:52:38.511Z,80.80
2022-08-05T03:55:52.989Z,80.80
2022-08-05T03:58:01.442Z,80.80
2022-08-05T04:00:51.472Z,80.80
2022-08-05T04:03:40.211Z,80.90
2022-08-05T04:06:51.381Z,81.00
2022-08-05T04:09:38.260Z,81.10
2022-08-05T04:15:24.909Z,81.10
2022-08-05T04:18:22.457Z,81.30
2022-08-05T04:21:11.664Z,81.40
2022-08-05T04:24:06.413Z,81.50
2022-08-05T04:26:55.618Z,81.70
2022-08-05T04:29:44.240Z,81.80
2022-08-05T04:32:33.432Z,82.50
2022-08-05T04:35:21.962Z,82.10
2022-08-05T04:38:09.825Z,82.30
2022-08-05T04:41:03.535Z,82.50
2022-08-05T04:43:52.791Z,82.70
2022-08-05T04:46:39.367Z,82.70
2022-08-05T04:49:39.196Z,82.90
2022-08-05T04:52:34.299Z,83.00
2022-08-05T04:55:21.076Z,83.10
2022-08-05T04:58:26.871Z,83.30
2022-08-05T05:01:13.688Z,83.40
2022-08-05T05:04:00.106Z,83.60
2022-08-05T05:06:52.031Z,83.60
2022-08-05T05:09:45.225Z,83.70
2022-08-05T05:12:32.096Z,84.00
2022-08-05T05:15:57.787Z,84.10
2022-08-05T05:18:31.170Z,84.30
2022-08-05T05:21:20.218Z,84.30
2022-08-05T05:24:08.903Z,84.50
2022-08-05T05:26:55.655Z,84.60
2022-08-05T05:30:04.359Z,84.70
2022-08-05T05:32:49.346Z,84.80
2022-08-05T05:35:37.986Z,84.90
2022-08-05T05:38:28.469Z,84.90
2022-08-05T05:41:16.396Z,85.00
2022-08-05T05:44:04.779Z,84.90
2022-08-05T05:47:21.405Z,84.80
2022-08-05T05:50:09.967Z,84.70
2022-08-05T05:53:02.670Z,84.40
2022-08-05T05:56:10.300Z,84.30
2022-08-05T05:59:03.284Z,84.20
2022-08-05T06:01:57.157Z,84.00
2022-08-05T06:04:44.442Z,83.80
2022-08-05T06:07:41.773Z,83.70
2022-08-05T06:10:29.236Z,83.60
2022-08-05T06:13:15.733Z,83.60
2022-08-05T06:16:30.903Z,83.60
2022-08-05T06:19:09.100Z,83.70
2022-08-05T06:21:58.459Z,83.70
2022-08-05T06:24:48.253Z,83.70
2022-08-05T06:28:11.341Z,83.70
2022-08-05T06:30:42.136Z,83.70
2022-08-05T06:34:02.964Z,83.50
2022-08-05T06:36:37.391Z,83.40
2022-08-05T06:39:44.258Z,83.20
2022-08-05T06:42:32.988Z,83.00
2022-08-05T06:45:21.019Z,83.00
2022-08-05T06:48:13.803Z,82.90
2022-08-05T06:51:22.748Z,83.40
2022-08-05T06:54:18.123Z,82.80
2022-08-05T06:57:14.069Z,82.80
2022-08-05T07:00:12.617Z,82.80
2022-08-05T07:02:59.340Z,82.70
2022-08-05T07:05:46.216Z,82.50
2022-08-05T07:08:32.915Z,82.60
2022-08-05T07:11:22.144Z,82.50
2022-08-05T07:14:32.195Z,82.40
2022-08-05T07:18:07.285Z,82.20
2022-08-05T07:20:33.371Z,82.10
2022-08-05T07:23:26.300Z,81.80
2022-08-05T07:26:20.931Z,81.30
2022-08-05T07:29:09.224Z,81.20
2022-08-05T07:31:55.831Z,81.20
2022-08-05T07:34:42.395Z,81.10
2022-08-05T07:37:29.126Z,80.90
2022-08-05T07:40:26.786Z,80.70
2022-08-05T07:43:20.869Z,80.40
2022-08-05T07:46:07.274Z,79.50
2022-08-05T07:49:10.912Z,79.30
2022-08-05T07:51:57.161Z,78.50
2022-08-05T07:54:49.107Z,78.60
2022-08-05T07:57:55.161Z,78.60
2022-08-05T08:00:42.496Z,78.40
2022-08-05T08:03:44.355Z,78.30
2022-08-05T08:06:32.641Z,78.60
2022-08-05T08:09:19.779Z,79.10
2022-08-05T08:12:15.938Z,78.30
2022-08-05T08:15:15.804Z,78.50
2022-08-05T08:18:04.257Z,78.50
2022-08-05T08:21:02.962Z,78.60
2022-08-05T08:24:01.846Z,78.50
2022-08-05T08:26:50.838Z,78.40
2022-08-05T08:30:05.601Z,78.40
2022-08-05T08:32:44.622Z,78.30
2022-08-05T08:35:34.881Z,78.20
2022-08-05T08:38:36.129Z,78.20
2022-08-05T08:41:52.377Z,78.10
2022-08-05T08:45:19.417Z,78.10
2022-08-05T08:48:07.588Z,77.60
2022-08-05T08:51:03.470Z,77.40
2022-08-05T08:53:54.144Z,77.50
2022-08-05T08:56:47.893Z,77.00
2022-08-05T08:59:36.234Z,77.00
2022-08-05T09:02:26.668Z,76.70
2022-08-05T09:05:16.600Z,76.40
2022-08-05T09:08:04.819Z,76.20
2022-08-05T09:10:52.067Z,76.40
2022-08-05T09:14:09.663Z,76.50
2022-08-05T09:16:48.756Z,76.60
2022-08-05T09:19:36.842Z,76.70
2022-08-05T09:23:19.685Z,76.90
2022-08-05T09:26:10.314Z,76.60
2022-08-05T09:29:06.976Z,76.20
2022-08-05T09:32:42.047Z,75.80
2022-08-05T09:35:20.168Z,75.50
2022-08-05T09:38:18.294Z,75.60
2022-08-05T09:41:07.367Z,75.50
2022-08-05T09:43:54.374Z,75.20
2022-08-05T09:46:51.594Z,74.80
2022-08-05T09:50:02.466Z,74.20
2022-08-05T09:52:57.745Z,74.00
2022-08-05T09:55:57.697Z,73.50
2022-08-05T09:59:04.981Z,73.00
2022-08-05T10:01:58.393Z,72.50
2022-08-05T10:04:53.825Z,72.60
2022-08-05T10:08:11.007Z,72.50
2022-08-05T10:10:55.564Z,72.30
2022-08-05T10:13:47.199Z,71.60
2022-08-05T10:16:41.852Z,71.30
2022-08-05T10:20:04.020Z,71.10
2022-08-05T10:22:48.687Z,70.70
2022-08-05T10:25:37.160Z,70.30
2022-08-05T10:28:30.564Z,70.50
2022-08-05T10:32:47.845Z,70.30
2022-08-05T10:34:30.073Z,70.40
2022-08-05T10:37:18.049Z,69.90
2022-08-05T10:40:17.888Z,69.80
2022-08-05T10:43:35.905Z,70.00
2022-08-05T10:46:23.857Z,69.40
2022-08-05T10:49:16.493Z,69.20
2022-08-05T10:52:05.490Z,68.70
2022-08-05T10:55:06.229Z,68.70
2022-08-05T10:58:11.864Z,68.70
2022-08-05T11:01:08.486Z,68.30
2022-08-05T11:04:17.365Z,68.00
2022-08-05T11:07:08.907Z,68.10
2022-08-05T11:10:09.659Z,68.50
2022-08-05T11:12:57.884Z,68.30
2022-08-05T11:16:00.920Z,68.60
2022-08-05T11:18:48.229Z,68.60
2022-08-05T11:21:48.665Z,68.60
2022-08-05T11:24:35.490Z,68.70
2022-08-05T11:27:45.807Z,68.60
2022-08-05T11:31:06.613Z,68.40
2022-08-05T11:33:56.576Z,68.40
2022-08-05T11:36:53.010Z,68.70
2022-08-05T11:40:00.858Z,68.60
2022-08-05T11:42:50.162Z,68.00
2022-08-05T11:46:14.899Z,68.00
2022-08-05T11:48:57.653Z,67.60
2022-08-05T11:51:49.470Z,67.60
2022-08-05T11:54:38.229Z,67.50
2022-08-05T11:58:08.058Z,67.50
2022-08-05T12:00:38.505Z,67.30
2022-08-05T12:03:31.525Z,67.40
2022-08-05T12:06:23.813Z,66.80
2022-08-05T12:09:20.133Z,66.50
2022-08-05T12:12:08.226Z,66.10
2022-08-05T12:14:56.604Z,65.40
2022-08-05T12:18:02.791Z,65.50
2022-08-05T12:20:51.766Z,65.40
2022-08-05T12:23:51.334Z,65.20
2022-08-05T12:26:47.092Z,65.20
2022-08-05T12:29:37.949Z,65.30
2022-08-05T12:32:25.508Z,65.90
2022-08-05T12:35:16.850Z,65.40
2022-08-05T12:38:08.067Z,65.40
2022-08-05T12:40:57.538Z,65.00
2022-08-05T12:43:56.442Z,64.70
2022-08-05T12:46:51.395Z,64.20
2022-08-05T12:50:03.869Z,64.20
2022-08-05T12:52:59.995Z,64.10
2022-08-05T12:55:46.664Z,64.30
2022-08-05T12:58:51.271Z,65.00
2022-08-05T13:01:59.858Z,64.20
2022-08-05T13:04:52.568Z,63.90
2022-08-05T13:07:59.703Z,64.00
2022-08-05T13:10:50.673Z,64.00
2022-08-05T13:14:06.133Z,63.70
2022-08-05T13:16:51.790Z,63.60
2022-08-05T13:19:51.857Z,63.60
2022-08-05T13:22:42.112Z,63.00
2022-08-05T13:25:52.094Z,62.40
2022-08-05T13:28:40.879Z,62.40
2022-08-05T13:31:34.103Z,62.90
2022-08-05T13:34:36.704Z,63.10
2022-08-05T13:37:34.452Z,63.00
2022-08-05T13:40:35.655Z,62.50
2022-08-05T13:43:45.098Z,62.20
2022-08-05T13:46:50.618Z,62.20
2022-08-05T13:49:45.353Z,62.50
2022-08-05T13:52:36.277Z,62.90
2022-08-05T13:55:41.605Z,62.30
2022-08-05T13:58:30.507Z,62.40
2022-08-05T14:01:17.497Z,62.40
2022-08-05T14:04:26.422Z,62.10
2022-08-05T14:07:56.329Z,61.80
2022-08-05T14:10:28.070Z,61.50
2022-08-05T14:13:16.788Z,61.40
2022-08-05T14:16:05.185Z,61.50
2022-08-05T14:18:52.914Z,61.70
2022-08-05T14:22:08.831Z,61.70
2022-08-05T14:24:47.425Z,61.70
2022-08-05T14:27:33.697Z,61.40
2022-08-05T14:30:21.690Z,61.50
2022-08-05T14:33:10.711Z,61.50
2022-08-05T14:36:03.200Z,61.50
2022-08-05T14:38:52.649Z,61.80
2022-08-05T14:41:52.221Z,61.90
2022-08-05T14:44:46.431Z,62.30
2022-08-05T14:48:05.175Z,61.60
2022-08-05T14:50:41.722Z,60.70
2022-08-05T14:53:29.867Z,60.40
2022-08-05T14:56:16.518Z,60.20
2022-08-05T14:59:12.770Z,59.80
2022-08-05T15:02:00.009Z,59.90
2022-08-05T15:04:49.959Z,60.00
2022-08-05T15:08:10.705Z,60.30
2022-08-05T15:10:43.412Z,60.30
2022-08-05T15:13:46.617Z,60.10
2022-08-05T15:16:36.490Z,60.10
2022-08-05T15:19:24.114Z,60.00
2022-08-05T15:22:10.882Z,60.10
2022-08-05T15:24:59.038Z,59.90
2022-08-05T15:27:52.112Z,60.00
2022-08-05T15:30:38.696Z,59.90
2022-08-05T15:34:05.540Z,59.60
2022-08-05T15:36:32.413Z,59.50
2022-08-05T15:40:58.548Z,58.60
2022-08-05T15:42:54.306Z,57.60
2022-08-05T15:45:38.285Z,55.40
2022-08-05T15:48:24.639Z,53.50
2022-08-05T15:51:10.618Z,52.80
2022-08-05T15:53:57.336Z,51.10
2022-08-05T15:56:45.741Z,51.00
2022-08-05T15:59:31.565Z,50.80
2022-08-05T16:02:19.458Z,49.50
2022-08-05T16:05:11.345Z,48.60
2022-08-05T16:07:57.824Z,48.80
2022-08-05T16:10:44.210Z,49.00
2022-08-05T16:13:34.952Z,49.80
2022-08-05T16:16:25.528Z,50.50
2022-08-05T16:19:12.032Z,51.20
2022-08-05T16:22:06.803Z,51.70
2022-08-05T16:24:57.791Z,51.80
2022-08-05T16:28:00.195Z,52.00
2022-08-05T16:30:47.140Z,52.50
2022-08-05T16:33:41.193Z,52.80
2022-08-05T16:36:28.128Z,53.10
2022-08-05T16:39:14.692Z,53.30
2022-08-05T16:42:27.626Z,53.80
2022-08-05T16:46:06.137Z,53.80
2022-08-05T16:48:25.109Z,52.80
2022-08-05T16:51:12.340Z,52.50
2022-08-05T16:54:05.090Z,52.30
2022-08-05T16:56:57.520Z,52.70
2022-08-05T17:00:01.739Z,52.00
2022-08-05T17:02:51.343Z,51.60
2022-08-05T17:05:37.798Z,50.90
2022-08-05T17:08:36.348Z,50.10
2022-08-05T17:11:30.724Z,49.50
2022-08-05T17:14:37.649Z,48.40
2022-08-05T17:17:26.534Z,47.90
2022-08-05T17:20:28.817Z,47.10
2022-08-05T17:24:04.310Z,47.00
2022-08-05T17:26:21.184Z,47.00
2022-08-05T17:29:10.172Z,46.40
2022-08-05T17:31:59.176Z,45.90
2022-08-05T17:34:48.121Z,45.40
2022-08-05T17:37:40.040Z,45.10
2022-08-05T17:40:27.580Z,44.70
2022-08-05T17:43:17.966Z,44.40
2022-08-05T17:46:24.205Z,44.10
2022-08-05T17:49:10.113Z,43.60
2022-08-05T17:51:56.444Z,43.80
2022-08-05T17:54:42.722Z,42.90
2022-08-05T17:57:28.917Z,43.20
2022-08-05T18:00:18.518Z,43.80
2022-08-05T18:03:04.940Z,44.50
2022-08-05T18:05:54.454Z,45.00
2022-08-05T18:08:44.854Z,45.70
2022-08-05T18:11:33.884Z,46.40
2022-08-05T18:14:20.862Z,47.20
2022-08-05T18:17:07.097Z,47.90
2022-08-05T18:20:16.132Z,48.40
2022-08-05T18:23:09.509Z,48.90
2022-08-05T18:25:59.473Z,49.60
2022-08-05T18:28:46.503Z,50.10
2022-08-05T18:31:35.310Z,50.50
2022-08-05T18:34:22.072Z,50.90
2022-08-05T18:37:12.275Z,51.30
2022-08-05T18:41:50.162Z,51.80
2022-08-05T18:43:05.454Z,52.20
2022-08-05T18:45:55.334Z,52.40
2022-08-05T18:48:42.560Z,53.20
2022-08-05T18:52:05.107Z,52.90
2022-08-05T18:54:54.538Z,53.10
2022-08-05T18:57:50.046Z,53.40
2022-08-05T19:00:40.193Z,53.70
2022-08-05T19:03:53.482Z,53.90
2022-08-05T19:06:44.723Z,54.10
2022-08-05T19:09:40.091Z,54.50
2022-08-05T19:12:26.368Z,54.90
2022-08-05T19:15:56.694Z,55.10
2022-08-05T19:18:22.531Z,55.20
2022-08-05T19:21:08.761Z,55.50
2022-08-05T19:24:06.252Z,57.80
2022-08-05T19:26:57.131Z,56.00
2022-08-05T19:32:30.388Z,56.10
2022-08-05T19:35:16.481Z,56.90
2022-08-05T19:38:04.578Z,57.10
2022-08-05T19:40:54.078Z,57.30
2022-08-05T19:44:05.402Z,57.70
2022-08-05T19:46:50.938Z,58.00
2022-08-05T19:49:37.466Z,58.00
2022-08-05T19:52:30.611Z,58.30
2022-08-05T19:56:14.451Z,58.60
2022-08-05T19:58:28.404Z,58.70
2022-08-05T20:01:16.195Z,58.80
2022-08-05T20:04:14.790Z,58.90
2022-08-05T20:07:02.065Z,59.10
2022-08-05T20:09:53.958Z,59.20
2022-08-05T20:12:47.866Z,59.20
2022-08-05T20:15:52.465Z,59.40
2022-08-05T20:18:44.966Z,59.60
2022-08-05T20:21:31.865Z,59.80
2022-08-05T20:24:19.427Z,60.00
2022-08-05T20:27:11.372Z,60.20
2022-08-05T20:29:59.045Z,60.30
2022-08-05T20:32:45.608Z,60.30
2022-08-05T20:35:31.864Z,60.60
2022-08-05T20:38:28.248Z,61.20
2022-08-05T20:41:23.767Z,61.70
2022-08-05T20:44:18.507Z,62.40
2022-08-05T20:47:14.927Z,62.70
2022-08-05T20:50:02.436Z,63.30
2022-08-05T20:52:52.532Z,63.50
2022-08-05T20:56:07.484Z,63.80
2022-08-05T20:58:44.466Z,64.20
2022-08-05T21:01:38.299Z,64.20
2022-08-05T21:04:26.878Z,64.40
2022-08-05T21:07:14.314Z,64.80
2022-08-05T21:10:00.936Z,64.90
2022-08-05T21:13:09.042Z,65.10
2022-08-05T21:15:57.938Z,65.30
2022-08-05T21:18:45.326Z,65.30
2022-08-05T21:21:39.095Z,65.60
2022-08-05T21:24:30.062Z,65.80
2022-08-05T21:27:16.704Z,66.00
2022-08-05T21:30:03.901Z,66.10
2022-08-05T21:32:49.861Z,66.30
2022-08-05T21:35:55.930Z,66.40
2022-08-05T21:38:42.773Z,66.50
2022-08-05T21:41:34.283Z,66.60
2022-08-05T21:44:27.083Z,66.70
2022-08-05T21:47:17.644Z,67.00
2022-08-05T21:50:22.182Z,67.20
2022-08-05T21:53:17.394Z,67.40
2022-08-05T21:56:16.532Z,67.60
2022-08-05T21:59:08.030Z,67.80
2022-08-05T22:02:09.337Z,67.70
2022-08-05T22:04:58.353Z,67.90
2022-08-05T22:07:58.436Z,68.10
2022-08-05T22:10:45.881Z,68.20
2022-08-05T22:14:33.199Z,68.30
2022-08-05T22:16:51.724Z,68.40
2022-08-05T22:20:02.938Z,68.60
2022-08-05T22:23:16.749Z,68.80
2022-08-05T22:26:22.361Z,68.90
2022-08-05T22:29:10.585Z,69.20
2022-08-05T22:32:02.771Z,69.50
2022-08-05T22:34:50.098Z,69.80
2022-08-05T22:37:58.683Z,70.10
2022-08-05T22:40:49.399Z,70.50
2022-08-05T22:43:38.200Z,70.70
2022-08-05T22:46:25.926Z,70.90
2022-08-05T22:50:17.688Z,71.20
2022-08-05T22:52:30.418Z,71.40
2022-08-05T22:55:21.745Z,71.60
2022-08-05T22:58:11.680Z,71.80
2022-08-05T23:01:03.666Z,72.00
2022-08-05T23:03:57.940Z,72.80
2022-08-05T23:06:48.558Z,72.40
2022-08-05T23:09:58.428Z,72.60
2022-08-05T23:12:40.920Z,72.80
2022-08-05T23:15:35.364Z,73.00
2022-08-05T23:18:22.864Z,73.10
2022-08-05T23:21:10.276Z,73.20
2022-08-05T23:23:56.549Z,73.30
2022-08-05T23:26:42.454Z,73.30
2022-08-05T23:29:34.418Z,73.40
2022-08-05T23:32:22.691Z,73.50
2022-08-05T23:35:09.872Z,73.60
2022-08-05T23:37:56.033Z,73.70
2022-08-05T23:40:42.239Z,73.70
2022-08-05T23:43:37.312Z,73.70
2022-08-05T23:46:41.446Z,73.70
2022-08-05T23:49:35.672Z,73.80
2022-08-05T23:52:32.553Z,73.90
2022-08-05T23:55:30.885Z,74.00
2022-08-05T23:58:31.448Z,74.20
